Terminal Aerodrome Forecast
Issued by NWS

Home | Current Version | Previous Version | Text Only | Print | Product List | Glossary On
Versions: 1 2 3 4 5 6 7 8 9 10 11 12
546
FTUS44 KLZK 071727
TAFLLQ
TAF
KLLQ 071727Z 0718/0818 24009KT P6SM SCT250
     FM080300 23006KT P6SM SCT250
     FM080900 28009KT P6SM BKN250
     FM081500 30015G25KT P6SM BKN040=

USA.gov is the U.S. government's official web portal to all federal, state and local government web resources and services.